Lovell Field Chattanooga US
ICAO: KCHA
IATA: CHA
Category: Large
Scheduled Services: Yes

Elevation: 683 ft
TransAlt. 18000 ft.

Airport Communications:
CHATTANOOGA APP:119.2
CHATTANOOGA APP:122.5
ATIS:119.85
CLNC DEL:120.95
CTAF:118.3
CHATTANOOGA DEP:119.2
GND:121.7
ARNG OPS:41.5
CHATTANOOGA TWR:118.3
UNICOM:122.95

KCHA Zoom In..

If Map Doesn't Load, Click Here

Runways:

(A) RW 02 length 7400 ft width 150 ft
ILS 108.30 / hdg 19

(B) RW 15 length 5575 ft width 150 ft
---- / hdg 147

(C) RW 20 length 7400 ft width 150 ft
ILS 109.50 / hdg 199

(D) RW 33 length 5575 ft width 150 ft
---- / hdg 327

Location; KCHA
Day. 21 / Time. 15.53 Zulu
* Altimeter: 30.18
* Temperature: 26° c. 78.8°f.
* Wind from: 000° Speed 00 kn.
Dewpoint: 19° c.
Visibility: 10 Statute Miles.
Clouds: Scattered 2900 ft.
Clouds: Scattered 5500 ft.
Clouds: Broken 11000 ft.

KCHA 211553Z 00000KT 10SM SCT029 SCT055 BKN110 26/19 A3018 RMK AO2 SLP212 T02610194


Wind - Calm.

 
 
jpsmedia.com for Web Design worldairports.se 2018   terms of use